Dugger, IN (47848)

5:41 AM EDT on August 28, 2015 (GMT -0400)
2 miles SW of Sullivan_IN | | Change Station
CLOSE
Current Station
Personal Weather Station
Location: Sullivan, IN
Elevation: 499 ft
Nearby Weather Stations

Elev 499 ft 39.08 °N, 87.43 °W | Updated 8 minutes ago

Partly Cloudy
Partly Cloudy
58.6 °F
Feels Like 58.6 °F
N
0.0
Wind Variable Wind from NNE

Today
High -- | Low -- °F
--% Chance of Precip.
Yesterday
High -- | Low -- °F
Precip. -- in
7:13 AM 8:25 PM
Waxing Gibbous, 97% visible
Pressure 30.15 in
Visibility 1.5 miles
Clouds
Dew Point 56 °F
Humidity 92%
Rainfall 0.00 in
Snow Depth Not available.
UV Not available.
Pollen 10.00 out of 12
Air Quality Not available.
Flu Activity Not available.
METAR KRSV 280935Z AUTO 00000KT 1 1/2SM BR VV007 12/11 A3015 RMK AO2 VIS 1V2 1/2 T01160111
Pressure 30.15 in
Visibility 1.5 miles
Clouds
Dew Point 56 °F
Humidity 92%
Rainfall 0.00 in
Snow Depth Not available.
UV Not available.
Pollen 10.00 out of 12
Air Quality Not available.
Flu Activity Not available.
METAR KRSV 280935Z AUTO 00000KT 1 1/2SM BR VV007 12/11 A3015 RMK AO2 VIS 1V2 1/2 T01160111

10-Day Weather Forecast

×

Almanac

Astronomy

Aug. 28, 2015 Rise Set
Actual Time
Civil Twilight
Nautical Twilight
Astronomical Twilight
Moon
Length of Visible Light
Length of Day
Tomorrow will be .
, % of the Moon is Illuminated

Today's Extremes

State Highs State Lows

Community

WunderPhotos

Upload Photos

1,850,352 photos uploaded!

WunderBlogs® & News

Nearby

Air Quality

  Air Quality AQ Index Pollutant
Not available.

Snow Depth

Station Depth Elevation

Earthquake Activity

City Distance Mag. Time & Date
Minimum magnitude displayed is 2.5.

Coastal Water Temperatures

Place Temperature

Stations

Nearby Weather Stations

Station Location Temp. Windchill Dew Point Humidity Wind Precip. Elev Updated Type